sensor_id;sensor_type;location;lat;lon;timestamp;P1;durP1;ratioP1;P2;durP2;ratioP2
59099;SDS011;44884;52.730;6.964;2022-09-14T00:00:04;1.50;;;0.88;;
59099;SDS011;44884;52.730;6.964;2022-09-14T00:02:31;1.75;;;1.15;;
59099;SDS011;44884;52.730;6.964;2022-09-14T00:04:57;1.33;;;0.93;;
59099;SDS011;44884;52.730;6.964;2022-09-14T00:07:23;0.70;;;0.68;;
59099;SDS011;44884;52.730;6.964;2022-09-14T00:09:50;1.42;;;0.80;;
59099;SDS011;44884;52.730;6.964;2022-09-14T00:12:16;1.50;;;0.80;;
59099;SDS011;44884;52.730;6.964;2022-09-14T00:14:43;1.08;;;0.93;;
59099;SDS011;44884;52.730;6.964;2022-09-14T00:17:09;0.80;;;0.80;;
59099;SDS011;44884;52.730;6.964;2022-09-14T00:19:35;1.40;;;0.80;;
59099;SDS011;44884;52.730;6.964;2022-09-14T00:22:01;1.83;;;0.80;;
59099;SDS011;44884;52.730;6.964;2022-09-14T00:24:28;1.83;;;1.45;;
59099;SDS011;44884;52.730;6.964;2022-09-14T00:26:55;1.45;;;1.00;;
59099;SDS011;44884;52.730;6.964;2022-09-14T00:29:21;0.98;;;0.88;;
59099;SDS011;44884;52.730;6.964;2022-09-14T00:31:48;1.35;;;1.25;;
59099;SDS011;44884;52.730;6.964;2022-09-14T00:34:14;3.63;;;1.17;;
59099;SDS011;44884;52.730;6.964;2022-09-14T00:36:42;1.00;;;0.90;;
59099;SDS011;44884;52.730;6.964;2022-09-14T00:39:09;1.30;;;0.75;;
59099;SDS011;44884;52.730;6.964;2022-09-14T00:41:40;1.80;;;1.27;;
59099;SDS011;44884;52.730;6.964;2022-09-14T00:46:54;1.10;;;1.00;;
59099;SDS011;44884;52.730;6.964;2022-09-14T00:49:22;1.00;;;0.90;;
59099;SDS011;44884;52.730;6.964;2022-09-14T00:54:24;1.55;;;0.90;;
59099;SDS011;44884;52.730;6.964;2022-09-14T00:56:50;1.10;;;0.70;;
59099;SDS011;44884;52.730;6.964;2022-09-14T00:59:21;1.00;;;0.90;;
59099;SDS011;44884;52.730;6.964;2022-09-14T01:01:48;1.00;;;0.82;;
59099;SDS011;44884;52.730;6.964;2022-09-14T01:04:15;2.30;;;1.23;;
59099;SDS011;44884;52.730;6.964;2022-09-14T01:07:02;1.40;;;0.82;;
59099;SDS011;44884;52.730;6.964;2022-09-14T01:17:15;1.95;;;1.17;;
59099;SDS011;44884;52.730;6.964;2022-09-14T01:19:58;1.35;;;0.95;;
59099;SDS011;44884;52.730;6.964;2022-09-14T01:25:40;1.42;;;1.33;;
59099;SDS011;44884;52.730;6.964;2022-09-14T01:28:09;1.52;;;1.25;;
59099;SDS011;44884;52.730;6.964;2022-09-14T01:30:36;1.17;;;0.90;;
59099;SDS011;44884;52.730;6.964;2022-09-14T01:33:05;1.80;;;1.25;;
59099;SDS011;44884;52.730;6.964;2022-09-14T01:35:42;1.83;;;1.02;;
59099;SDS011;44884;52.730;6.964;2022-09-14T01:38:13;1.02;;;0.77;;
59099;SDS011;44884;52.730;6.964;2022-09-14T01:40:44;1.08;;;0.90;;
59099;SDS011;44884;52.730;6.964;2022-09-14T01:43:31;1.58;;;0.70;;
59099;SDS011;44884;52.730;6.964;2022-09-14T01:45:59;1.20;;;0.90;;
59099;SDS011;44884;52.730;6.964;2022-09-14T01:48:49;5.05;;;1.08;;
59099;SDS011;44884;52.730;6.964;2022-09-14T01:51:13;3.72;;;0.85;;
59099;SDS011;44884;52.730;6.964;2022-09-14T01:53:42;1.90;;;1.00;;
59099;SDS011;44884;52.730;6.964;2022-09-14T02:01:11;6.15;;;0.90;;
59099;SDS011;44884;52.730;6.964;2022-09-14T02:03:51;2.03;;;0.88;;
59099;SDS011;44884;52.730;6.964;2022-09-14T02:08:45;1.05;;;0.93;;
59099;SDS011;44884;52.730;6.964;2022-09-14T02:11:11;0.93;;;0.70;;
59099;SDS011;44884;52.730;6.964;2022-09-14T02:13:37;0.95;;;0.73;;
59099;SDS011;44884;52.730;6.964;2022-09-14T02:16:03;1.33;;;0.95;;
59099;SDS011;44884;52.730;6.964;2022-09-14T02:18:30;1.23;;;1.13;;
59099;SDS011;44884;52.730;6.964;2022-09-14T02:21:01;0.75;;;0.70;;
59099;SDS011;44884;52.730;6.964;2022-09-14T02:23:27;3.33;;;0.80;;
59099;SDS011;44884;52.730;6.964;2022-09-14T02:25:53;1.05;;;0.65;;
59099;SDS011;44884;52.730;6.964;2022-09-14T02:28:20;1.25;;;1.00;;
59099;SDS011;44884;52.730;6.964;2022-09-14T02:33:35;0.93;;;0.80;;
59099;SDS011;44884;52.730;6.964;2022-09-14T02:36:10;1.35;;;1.00;;
59099;SDS011;44884;52.730;6.964;2022-09-14T02:41:28;1.25;;;1.10;;
59099;SDS011;44884;52.730;6.964;2022-09-14T02:44:01;1.00;;;0.90;;
59099;SDS011;44884;52.730;6.964;2022-09-14T02:57:00;1.15;;;0.75;;
59099;SDS011;44884;52.730;6.964;2022-09-14T02:59:26;2.03;;;0.90;;
59099;SDS011;44884;52.730;6.964;2022-09-14T03:01:52;0.80;;;0.77;;
59099;SDS011;44884;52.730;6.964;2022-09-14T03:04:18;1.10;;;1.00;;
59099;SDS011;44884;52.730;6.964;2022-09-14T03:06:44;1.25;;;0.82;;
59099;SDS011;44884;52.730;6.964;2022-09-14T03:09:10;1.08;;;0.98;;
59099;SDS011;44884;52.730;6.964;2022-09-14T03:11:36;1.13;;;1.02;;
59099;SDS011;44884;52.730;6.964;2022-09-14T03:14:02;1.45;;;0.95;;
59099;SDS011;44884;52.730;6.964;2022-09-14T03:16:28;1.77;;;0.65;;
59099;SDS011;44884;52.730;6.964;2022-09-14T03:18:54;1.10;;;1.00;;
59099;SDS011;44884;52.730;6.964;2022-09-14T03:21:20;2.20;;;1.17;;
59099;SDS011;44884;52.730;6.964;2022-09-14T03:23:47;1.13;;;0.90;;
59099;SDS011;44884;52.730;6.964;2022-09-14T03:26:17;1.35;;;0.80;;
59099;SDS011;44884;52.730;6.964;2022-09-14T03:28:43;0.77;;;0.65;;
59099;SDS011;44884;52.730;6.964;2022-09-14T03:31:11;1.10;;;0.65;;
59099;SDS011;44884;52.730;6.964;2022-09-14T03:33:37;1.30;;;1.20;;
59099;SDS011;44884;52.730;6.964;2022-09-14T03:36:13;1.55;;;0.77;;
59099;SDS011;44884;52.730;6.964;2022-09-14T03:38:43;1.63;;;1.00;;
59099;SDS011;44884;52.730;6.964;2022-09-14T03:41:10;1.48;;;0.88;;
59099;SDS011;44884;52.730;6.964;2022-09-14T03:43:36;1.95;;;0.90;;
59099;SDS011;44884;52.730;6.964;2022-09-14T03:48:32;1.10;;;0.80;;
59099;SDS011;44884;52.730;6.964;2022-09-14T03:51:01;0.98;;;0.70;;
59099;SDS011;44884;52.730;6.964;2022-09-14T03:53:27;1.25;;;1.00;;
59099;SDS011;44884;52.730;6.964;2022-09-14T03:55:53;0.82;;;0.75;;
59099;SDS011;44884;52.730;6.964;2022-09-14T03:58:19;1.00;;;0.80;;
59099;SDS011;44884;52.730;6.964;2022-09-14T04:00:46;3.83;;;0.93;;
59099;SDS011;44884;52.730;6.964;2022-09-14T04:03:12;1.55;;;0.88;;
59099;SDS011;44884;52.730;6.964;2022-09-14T04:05:38;3.30;;;1.35;;
59099;SDS011;44884;52.730;6.964;2022-09-14T04:08:04;1.63;;;0.80;;
59099;SDS011;44884;52.730;6.964;2022-09-14T04:10:30;1.48;;;1.00;;
59099;SDS011;44884;52.730;6.964;2022-09-14T04:12:57;2.67;;;0.93;;
59099;SDS011;44884;52.730;6.964;2022-09-14T04:15:23;0.90;;;0.73;;
59099;SDS011;44884;52.730;6.964;2022-09-14T04:17:49;1.08;;;0.90;;
59099;SDS011;44884;52.730;6.964;2022-09-14T04:20:15;0.70;;;0.70;;
59099;SDS011;44884;52.730;6.964;2022-09-14T04:22:42;2.10;;;0.88;;
59099;SDS011;44884;52.730;6.964;2022-09-14T04:25:09;2.38;;;0.75;;
59099;SDS011;44884;52.730;6.964;2022-09-14T04:27:35;0.95;;;0.90;;
59099;SDS011;44884;52.730;6.964;2022-09-14T04:30:01;1.10;;;0.80;;
59099;SDS011;44884;52.730;6.964;2022-09-14T04:32:27;2.50;;;1.00;;
59099;SDS011;44884;52.730;6.964;2022-09-14T04:34:53;2.80;;;1.13;;
59099;SDS011;44884;52.730;6.964;2022-09-14T04:37:19;0.95;;;0.80;;
59099;SDS011;44884;52.730;6.964;2022-09-14T04:39:45;2.13;;;0.98;;
59099;SDS011;44884;52.730;6.964;2022-09-14T04:42:11;1.25;;;0.90;;
59099;SDS011;44884;52.730;6.964;2022-09-14T04:44:37;0.80;;;0.80;;
59099;SDS011;44884;52.730;6.964;2022-09-14T04:47:03;1.38;;;0.90;;
59099;SDS011;44884;52.730;6.964;2022-09-14T04:49:29;0.88;;;0.88;;
59099;SDS011;44884;52.730;6.964;2022-09-14T04:51:55;0.95;;;0.95;;
59099;SDS011;44884;52.730;6.964;2022-09-14T04:54:21;1.45;;;0.80;;
59099;SDS011;44884;52.730;6.964;2022-09-14T04:56:47;0.80;;;0.80;;
59099;SDS011;44884;52.730;6.964;2022-09-14T04:59:13;0.73;;;0.73;;
59099;SDS011;44884;52.730;6.964;2022-09-14T05:01:41;1.52;;;0.93;;
59099;SDS011;44884;52.730;6.964;2022-09-14T05:04:07;1.63;;;0.88;;
59099;SDS011;44884;52.730;6.964;2022-09-14T05:06:34;1.23;;;0.93;;
59099;SDS011;44884;52.730;6.964;2022-09-14T05:09:02;1.55;;;0.80;;
59099;SDS011;44884;52.730;6.964;2022-09-14T05:11:29;0.80;;;0.80;;
59099;SDS011;44884;52.730;6.964;2022-09-14T05:13:56;1.00;;;0.90;;
59099;SDS011;44884;52.730;6.964;2022-09-14T05:16:23;1.63;;;0.95;;
59099;SDS011;44884;52.730;6.964;2022-09-14T05:18:50;1.23;;;1.10;;
59099;SDS011;44884;52.730;6.964;2022-09-14T05:21:19;0.88;;;0.82;;
59099;SDS011;44884;52.730;6.964;2022-09-14T05:23:45;2.05;;;0.70;;
59099;SDS011;44884;52.730;6.964;2022-09-14T05:26:12;1.30;;;0.98;;
59099;SDS011;44884;52.730;6.964;2022-09-14T05:28:38;1.88;;;0.93;;
59099;SDS011;44884;52.730;6.964;2022-09-14T05:31:05;0.88;;;0.73;;
59099;SDS011;44884;52.730;6.964;2022-09-14T05:33:31;1.40;;;1.00;;
59099;SDS011;44884;52.730;6.964;2022-09-14T05:36:01;1.05;;;0.82;;
59099;SDS011;44884;52.730;6.964;2022-09-14T05:38:31;1.60;;;0.80;;
59099;SDS011;44884;52.730;6.964;2022-09-14T05:40:57;1.10;;;0.98;;
59099;SDS011;44884;52.730;6.964;2022-09-14T05:43:23;0.75;;;0.70;;
59099;SDS011;44884;52.730;6.964;2022-09-14T05:45:50;1.45;;;0.93;;
59099;SDS011;44884;52.730;6.964;2022-09-14T05:48:16;0.98;;;0.88;;
59099;SDS011;44884;52.730;6.964;2022-09-14T05:50:43;1.05;;;0.90;;
59099;SDS011;44884;52.730;6.964;2022-09-14T05:53:09;0.73;;;0.73;;
59099;SDS011;44884;52.730;6.964;2022-09-14T05:55:35;1.38;;;0.85;;
59099;SDS011;44884;52.730;6.964;2022-09-14T05:58:01;0.57;;;0.57;;
59099;SDS011;44884;52.730;6.964;2022-09-14T06:00:27;0.80;;;0.80;;
59099;SDS011;44884;52.730;6.964;2022-09-14T06:02:53;0.93;;;0.70;;
59099;SDS011;44884;52.730;6.964;2022-09-14T06:05:20;4.13;;;1.00;;
59099;SDS011;44884;52.730;6.964;2022-09-14T06:07:50;0.95;;;0.73;;
59099;SDS011;44884;52.730;6.964;2022-09-14T06:10:16;0.95;;;0.90;;
59099;SDS011;44884;52.730;6.964;2022-09-14T06:12:42;0.95;;;0.93;;
59099;SDS011;44884;52.730;6.964;2022-09-14T06:15:08;0.68;;;0.68;;
59099;SDS011;44884;52.730;6.964;2022-09-14T06:17:35;1.00;;;0.93;;
59099;SDS011;44884;52.730;6.964;2022-09-14T06:20:01;0.93;;;0.85;;
59099;SDS011;44884;52.730;6.964;2022-09-14T06:22:27;1.52;;;1.13;;
59099;SDS011;44884;52.730;6.964;2022-09-14T06:24:53;1.05;;;0.80;;
59099;SDS011;44884;52.730;6.964;2022-09-14T06:27:19;0.93;;;0.80;;
59099;SDS011;44884;52.730;6.964;2022-09-14T06:29:45;0.63;;;0.63;;
59099;SDS011;44884;52.730;6.964;2022-09-14T06:32:16;0.95;;;0.95;;
59099;SDS011;44884;52.730;6.964;2022-09-14T06:34:42;0.75;;;0.75;;
59099;SDS011;44884;52.730;6.964;2022-09-14T06:37:08;0.80;;;0.70;;
59099;SDS011;44884;52.730;6.964;2022-09-14T06:39:34;1.63;;;0.85;;
59099;SDS011;44884;52.730;6.964;2022-09-14T06:42:00;1.48;;;0.93;;
59099;SDS011;44884;52.730;6.964;2022-09-14T06:44:26;1.42;;;0.70;;
59099;SDS011;44884;52.730;6.964;2022-09-14T06:46:52;1.15;;;0.90;;
59099;SDS011;44884;52.730;6.964;2022-09-14T06:49:18;1.40;;;0.80;;
59099;SDS011;44884;52.730;6.964;2022-09-14T06:51:47;0.80;;;0.73;;
59099;SDS011;44884;52.730;6.964;2022-09-14T06:54:14;1.10;;;0.80;;
59099;SDS011;44884;52.730;6.964;2022-09-14T06:56:41;0.80;;;0.80;;
59099;SDS011;44884;52.730;6.964;2022-09-14T06:59:08;0.77;;;0.77;;
59099;SDS011;44884;52.730;6.964;2022-09-14T07:01:35;1.25;;;0.80;;
59099;SDS011;44884;52.730;6.964;2022-09-14T07:04:01;1.05;;;0.85;;
59099;SDS011;44884;52.730;6.964;2022-09-14T07:06:29;1.58;;;1.00;;
59099;SDS011;44884;52.730;6.964;2022-09-14T07:08:55;0.77;;;0.70;;
59099;SDS011;44884;52.730;6.964;2022-09-14T07:11:22;1.25;;;0.70;;
59099;SDS011;44884;52.730;6.964;2022-09-14T07:13:50;1.30;;;0.80;;
59099;SDS011;44884;52.730;6.964;2022-09-14T07:16:16;0.73;;;0.73;;
59099;SDS011;44884;52.730;6.964;2022-09-14T07:18:42;1.85;;;0.88;;
59099;SDS011;44884;52.730;6.964;2022-09-14T07:23:34;0.70;;;0.70;;
59099;SDS011;44884;52.730;6.964;2022-09-14T07:26:11;0.80;;;0.80;;
59099;SDS011;44884;52.730;6.964;2022-09-14T07:28:38;0.70;;;0.70;;
59099;SDS011;44884;52.730;6.964;2022-09-14T07:31:05;0.80;;;0.80;;
59099;SDS011;44884;52.730;6.964;2022-09-14T07:33:38;2.25;;;0.95;;
59099;SDS011;44884;52.730;6.964;2022-09-14T07:36:04;1.08;;;0.90;;
59099;SDS011;44884;52.730;6.964;2022-09-14T07:38:30;1.75;;;1.05;;
59099;SDS011;44884;52.730;6.964;2022-09-14T07:40:57;1.80;;;1.00;;
59099;SDS011;44884;52.730;6.964;2022-09-14T07:43:23;1.13;;;0.98;;
59099;SDS011;44884;52.730;6.964;2022-09-14T07:45:49;1.63;;;1.40;;
59099;SDS011;44884;52.730;6.964;2022-09-14T07:48:15;5.50;;;2.17;;
59099;SDS011;44884;52.730;6.964;2022-09-14T07:50:41;3.30;;;1.40;;
59099;SDS011;44884;52.730;6.964;2022-09-14T07:53:07;2.42;;;1.48;;
59099;SDS011;44884;52.730;6.964;2022-09-14T07:55:36;2.47;;;1.77;;
59099;SDS011;44884;52.730;6.964;2022-09-14T07:58:03;1.52;;;0.80;;
59099;SDS011;44884;52.730;6.964;2022-09-14T08:00:29;1.10;;;1.00;;
59099;SDS011;44884;52.730;6.964;2022-09-14T08:02:55;2.47;;;1.00;;
59099;SDS011;44884;52.730;6.964;2022-09-14T08:05:23;1.77;;;1.33;;
59099;SDS011;44884;52.730;6.964;2022-09-14T08:07:56;2.55;;;1.20;;
59099;SDS011;44884;52.730;6.964;2022-09-14T08:10:22;2.93;;;1.00;;
59099;SDS011;44884;52.730;6.964;2022-09-14T08:12:53;4.22;;;1.45;;
59099;SDS011;44884;52.730;6.964;2022-09-14T08:15:20;2.08;;;1.08;;
59099;SDS011;44884;52.730;6.964;2022-09-14T08:17:46;1.38;;;1.08;;
59099;SDS011;44884;52.730;6.964;2022-09-14T08:20:12;1.33;;;1.20;;
59099;SDS011;44884;52.730;6.964;2022-09-14T08:22:41;1.45;;;1.00;;
59099;SDS011;44884;52.730;6.964;2022-09-14T08:25:08;2.13;;;0.88;;
59099;SDS011;44884;52.730;6.964;2022-09-14T08:27:34;1.75;;;1.33;;
59099;SDS011;44884;52.730;6.964;2022-09-14T08:30:00;2.38;;;1.40;;
59099;SDS011;44884;52.730;6.964;2022-09-14T08:32:26;2.95;;;1.30;;
59099;SDS011;44884;52.730;6.964;2022-09-14T08:34:52;1.20;;;0.77;;
59099;SDS011;44884;52.730;6.964;2022-09-14T08:37:18;1.85;;;1.17;;
59099;SDS011;44884;52.730;6.964;2022-09-14T08:39:44;1.65;;;0.98;;
59099;SDS011;44884;52.730;6.964;2022-09-14T08:42:12;1.08;;;0.70;;
59099;SDS011;44884;52.730;6.964;2022-09-14T08:44:42;3.80;;;0.90;;
59099;SDS011;44884;52.730;6.964;2022-09-14T08:47:15;1.05;;;0.88;;
59099;SDS011;44884;52.730;6.964;2022-09-14T08:57:45;1.25;;;1.00;;
59099;SDS011;44884;52.730;6.964;2022-09-14T09:00:56;1.40;;;1.00;;
59099;SDS011;44884;52.730;6.964;2022-09-14T09:10:57;1.55;;;1.08;;
59099;SDS011;44884;52.730;6.964;2022-09-14T09:13:25;1.73;;;1.05;;
59099;SDS011;44884;52.730;6.964;2022-09-14T09:15:52;1.50;;;1.17;;
59099;SDS011;44884;52.730;6.964;2022-09-14T09:21:11;2.83;;;1.00;;
59099;SDS011;44884;52.730;6.964;2022-09-14T09:23:38;1.60;;;0.90;;
59099;SDS011;44884;52.730;6.964;2022-09-14T09:26:06;1.05;;;0.90;;
59099;SDS011;44884;52.730;6.964;2022-09-14T09:28:39;1.15;;;1.05;;
59099;SDS011;44884;52.730;6.964;2022-09-14T09:31:06;2.38;;;1.25;;
59099;SDS011;44884;52.730;6.964;2022-09-14T09:33:34;1.30;;;0.85;;
59099;SDS011;44884;52.730;6.964;2022-09-14T09:36:00;3.30;;;1.45;;
59099;SDS011;44884;52.730;6.964;2022-09-14T09:38:27;1.90;;;1.10;;
59099;SDS011;44884;52.730;6.964;2022-09-14T09:40:55;7.18;;;1.30;;
59099;SDS011;44884;52.730;6.964;2022-09-14T09:43:23;4.53;;;1.30;;
59099;SDS011;44884;52.730;6.964;2022-09-14T09:45:50;1.30;;;1.13;;
59099;SDS011;44884;52.730;6.964;2022-09-14T09:48:18;1.42;;;0.50;;
59099;SDS011;44884;52.730;6.964;2022-09-14T09:50:56;2.13;;;1.00;;
59099;SDS011;44884;52.730;6.964;2022-09-14T09:53:24;5.20;;;1.83;;
59099;SDS011;44884;52.730;6.964;2022-09-14T09:55:50;4.70;;;1.30;;
59099;SDS011;44884;52.730;6.964;2022-09-14T10:01:06;2.65;;;0.90;;
59099;SDS011;44884;52.730;6.964;2022-09-14T10:06:02;1.92;;;1.48;;
59099;SDS011;44884;52.730;6.964;2022-09-14T10:08:29;3.03;;;1.10;;
59099;SDS011;44884;52.730;6.964;2022-09-14T10:11:02;3.20;;;0.90;;
59099;SDS011;44884;52.730;6.964;2022-09-14T10:13:32;3.53;;;0.88;;
59099;SDS011;44884;52.730;6.964;2022-09-14T10:16:14;3.75;;;0.85;;
59099;SDS011;44884;52.730;6.964;2022-09-14T10:18:48;2.20;;;0.90;;
59099;SDS011;44884;52.730;6.964;2022-09-14T10:21:16;3.17;;;0.90;;
59099;SDS011;44884;52.730;6.964;2022-09-14T10:23:43;3.38;;;1.25;;
59099;SDS011;44884;52.730;6.964;2022-09-14T10:28:35;5.80;;;1.35;;
59099;SDS011;44884;52.730;6.964;2022-09-14T10:31:05;3.58;;;1.05;;
59099;SDS011;44884;52.730;6.964;2022-09-14T10:33:32;3.38;;;1.15;;
59099;SDS011;44884;52.730;6.964;2022-09-14T10:41:16;4.13;;;1.20;;
59099;SDS011;44884;52.730;6.964;2022-09-14T10:44:06;4.90;;;0.82;;
59099;SDS011;44884;52.730;6.964;2022-09-14T10:46:42;2.50;;;1.10;;
59099;SDS011;44884;52.730;6.964;2022-09-14T10:51:49;2.78;;;0.75;;
59099;SDS011;44884;52.730;6.964;2022-09-14T10:57:08;2.42;;;1.02;;
59099;SDS011;44884;52.730;6.964;2022-09-14T11:02:19;2.17;;;0.60;;
59099;SDS011;44884;52.730;6.964;2022-09-14T11:10:07;4.47;;;0.90;;
59099;SDS011;44884;52.730;6.964;2022-09-14T11:12:53;3.58;;;1.15;;
59099;SDS011;44884;52.730;6.964;2022-09-14T11:15:30;1.33;;;0.50;;
59099;SDS011;44884;52.730;6.964;2022-09-14T11:18:12;4.15;;;0.73;;
59099;SDS011;44884;52.730;6.964;2022-09-14T11:26:09;1.70;;;0.98;;
59099;SDS011;44884;52.730;6.964;2022-09-14T11:28:37;1.60;;;0.70;;
59099;SDS011;44884;52.730;6.964;2022-09-14T11:31:08;5.78;;;1.40;;
59099;SDS011;44884;52.730;6.964;2022-09-14T11:33:42;2.58;;;0.80;;
59099;SDS011;44884;52.730;6.964;2022-09-14T11:36:13;2.80;;;1.48;;
59099;SDS011;44884;52.730;6.964;2022-09-14T11:38:43;2.45;;;0.90;;
59099;SDS011;44884;52.730;6.964;2022-09-14T11:46:18;2.00;;;1.13;;
59099;SDS011;44884;52.730;6.964;2022-09-14T11:48:52;1.73;;;0.77;;
59099;SDS011;44884;52.730;6.964;2022-09-14T11:51:23;2.88;;;1.10;;
59099;SDS011;44884;52.730;6.964;2022-09-14T11:53:52;2.42;;;1.00;;
59099;SDS011;44884;52.730;6.964;2022-09-14T11:56:20;2.90;;;1.00;;
59099;SDS011;44884;52.730;6.964;2022-09-14T11:58:50;4.37;;;0.90;;
59099;SDS011;44884;52.730;6.964;2022-09-14T12:01:24;2.78;;;1.08;;
59099;SDS011;44884;52.730;6.964;2022-09-14T12:03:52;1.90;;;1.05;;
59099;SDS011;44884;52.730;6.964;2022-09-14T12:11:35;4.28;;;1.30;;
59099;SDS011;44884;52.730;6.964;2022-09-14T12:17:02;3.67;;;0.80;;
59099;SDS011;44884;52.730;6.964;2022-09-14T12:19:28;3.00;;;1.00;;
59099;SDS011;44884;52.730;6.964;2022-09-14T12:21:55;1.25;;;0.93;;
59099;SDS011;44884;52.730;6.964;2022-09-14T12:24:21;2.35;;;0.90;;
59099;SDS011;44884;52.730;6.964;2022-09-14T12:26:47;1.23;;;0.75;;
59099;SDS011;44884;52.730;6.964;2022-09-14T12:29:23;2.92;;;1.45;;
59099;SDS011;44884;52.730;6.964;2022-09-14T12:34:20;2.63;;;1.15;;
59099;SDS011;44884;52.730;6.964;2022-09-14T12:39:22;3.08;;;0.93;;
59099;SDS011;44884;52.730;6.964;2022-09-14T12:49:42;2.55;;;0.80;;
59099;SDS011;44884;52.730;6.964;2022-09-14T12:52:12;1.70;;;1.00;;
59099;SDS011;44884;52.730;6.964;2022-09-14T12:57:25;2.80;;;0.88;;
59099;SDS011;44884;52.730;6.964;2022-09-14T13:00:00;2.45;;;1.00;;
59099;SDS011;44884;52.730;6.964;2022-09-14T13:04:55;3.67;;;0.98;;
59099;SDS011;44884;52.730;6.964;2022-09-14T13:07:22;1.30;;;0.88;;
59099;SDS011;44884;52.730;6.964;2022-09-14T13:09:51;1.70;;;0.80;;
59099;SDS011;44884;52.730;6.964;2022-09-14T13:12:24;1.95;;;1.00;;
59099;SDS011;44884;52.730;6.964;2022-09-14T13:17:16;2.13;;;1.08;;
59099;SDS011;44884;52.730;6.964;2022-09-14T13:19:42;2.15;;;0.70;;
59099;SDS011;44884;52.730;6.964;2022-09-14T13:22:18;3.70;;;1.10;;
59099;SDS011;44884;52.730;6.964;2022-09-14T13:24:46;3.50;;;1.08;;
59099;SDS011;44884;52.730;6.964;2022-09-14T13:27:16;2.25;;;1.05;;
59099;SDS011;44884;52.730;6.964;2022-09-14T13:29:45;2.72;;;1.20;;
59099;SDS011;44884;52.730;6.964;2022-09-14T13:32:12;2.95;;;1.20;;
59099;SDS011;44884;52.730;6.964;2022-09-14T13:34:42;4.07;;;1.25;;
59099;SDS011;44884;52.730;6.964;2022-09-14T13:37:11;3.40;;;1.00;;
59099;SDS011;44884;52.730;6.964;2022-09-14T13:39:38;6.55;;;1.38;;
59099;SDS011;44884;52.730;6.964;2022-09-14T13:42:06;3.45;;;1.00;;
59099;SDS011;44884;52.730;6.964;2022-09-14T13:44:38;3.42;;;1.35;;
59099;SDS011;44884;52.730;6.964;2022-09-14T13:47:15;3.53;;;1.27;;
59099;SDS011;44884;52.730;6.964;2022-09-14T13:49:42;4.75;;;1.20;;
59099;SDS011;44884;52.730;6.964;2022-09-14T13:54:47;1.42;;;1.00;;
59099;SDS011;44884;52.730;6.964;2022-09-14T13:57:18;1.88;;;1.10;;
59099;SDS011;44884;52.730;6.964;2022-09-14T14:04:59;6.85;;;1.38;;
59099;SDS011;44884;52.730;6.964;2022-09-14T14:07:31;2.60;;;1.23;;
59099;SDS011;44884;52.730;6.964;2022-09-14T14:09:58;9.27;;;1.00;;
59099;SDS011;44884;52.730;6.964;2022-09-14T14:12:34;2.75;;;1.00;;
59099;SDS011;44884;52.730;6.964;2022-09-14T14:19:54;3.35;;;1.10;;
59099;SDS011;44884;52.730;6.964;2022-09-14T14:22:23;2.67;;;0.90;;
59099;SDS011;44884;52.730;6.964;2022-09-14T14:24:51;3.15;;;1.10;;
59099;SDS011;44884;52.730;6.964;2022-09-14T14:27:30;1.88;;;1.15;;
59099;SDS011;44884;52.730;6.964;2022-09-14T14:29:57;2.97;;;1.25;;
59099;SDS011;44884;52.730;6.964;2022-09-14T14:32:24;5.43;;;1.00;;
59099;SDS011;44884;52.730;6.964;2022-09-14T14:34:50;6.07;;;1.17;;
59099;SDS011;44884;52.730;6.964;2022-09-14T14:37:19;2.83;;;1.48;;
59099;SDS011;44884;52.730;6.964;2022-09-14T14:39:46;7.57;;;2.45;;
59099;SDS011;44884;52.730;6.964;2022-09-14T14:42:15;21.20;;;3.65;;
59099;SDS011;44884;52.730;6.964;2022-09-14T14:44:42;16.05;;;2.03;;
59099;SDS011;44884;52.730;6.964;2022-09-14T14:47:09;11.77;;;2.83;;
59099;SDS011;44884;52.730;6.964;2022-09-14T14:49:36;10.93;;;2.45;;
59099;SDS011;44884;52.730;6.964;2022-09-14T14:52:02;14.85;;;2.10;;
59099;SDS011;44884;52.730;6.964;2022-09-14T14:54:28;6.13;;;1.55;;
59099;SDS011;44884;52.730;6.964;2022-09-14T14:56:54;10.63;;;2.05;;
59099;SDS011;44884;52.730;6.964;2022-09-14T15:01:47;8.45;;;1.88;;
59099;SDS011;44884;52.730;6.964;2022-09-14T15:04:13;6.25;;;1.50;;
59099;SDS011;44884;52.730;6.964;2022-09-14T15:06:39;5.30;;;1.75;;
59099;SDS011;44884;52.730;6.964;2022-09-14T15:09:06;8.20;;;2.97;;
59099;SDS011;44884;52.730;6.964;2022-09-14T15:11:37;8.30;;;1.98;;
59099;SDS011;44884;52.730;6.964;2022-09-14T15:14:05;7.43;;;2.28;;
59099;SDS011;44884;52.730;6.964;2022-09-14T15:16:31;8.52;;;1.88;;
59099;SDS011;44884;52.730;6.964;2022-09-14T15:18:57;7.63;;;1.52;;
59099;SDS011;44884;52.730;6.964;2022-09-14T15:21:23;7.93;;;1.45;;
59099;SDS011;44884;52.730;6.964;2022-09-14T15:23:49;19.10;;;2.33;;
59099;SDS011;44884;52.730;6.964;2022-09-14T15:26:15;8.88;;;1.40;;
59099;SDS011;44884;52.730;6.964;2022-09-14T15:28:41;6.95;;;2.45;;
59099;SDS011;44884;52.730;6.964;2022-09-14T15:31:07;8.57;;;2.08;;
59099;SDS011;44884;52.730;6.964;2022-09-14T15:33:33;21.70;;;2.22;;
59099;SDS011;44884;52.730;6.964;2022-09-14T15:35:59;5.40;;;1.88;;
59099;SDS011;44884;52.730;6.964;2022-09-14T15:38:25;7.40;;;1.77;;
59099;SDS011;44884;52.730;6.964;2022-09-14T15:40:51;2.78;;;1.27;;
59099;SDS011;44884;52.730;6.964;2022-09-14T15:43:17;8.73;;;1.65;;
59099;SDS011;44884;52.730;6.964;2022-09-14T15:45:43;10.95;;;2.00;;
59099;SDS011;44884;52.730;6.964;2022-09-14T15:48:13;5.18;;;1.50;;
59099;SDS011;44884;52.730;6.964;2022-09-14T15:50:40;5.50;;;1.60;;
59099;SDS011;44884;52.730;6.964;2022-09-14T15:53:07;9.93;;;1.92;;
59099;SDS011;44884;52.730;6.964;2022-09-14T15:55:33;5.63;;;1.95;;
59099;SDS011;44884;52.730;6.964;2022-09-14T15:57:59;8.38;;;1.80;;
59099;SDS011;44884;52.730;6.964;2022-09-14T16:00:25;7.88;;;1.58;;
59099;SDS011;44884;52.730;6.964;2022-09-14T16:02:51;10.90;;;2.17;;
59099;SDS011;44884;52.730;6.964;2022-09-14T16:05:18;10.50;;;1.85;;
59099;SDS011;44884;52.730;6.964;2022-09-14T16:07:44;6.78;;;2.10;;
59099;SDS011;44884;52.730;6.964;2022-09-14T16:10:10;4.82;;;1.52;;
59099;SDS011;44884;52.730;6.964;2022-09-14T16:12:36;3.67;;;1.30;;
59099;SDS011;44884;52.730;6.964;2022-09-14T16:15:02;6.25;;;1.40;;
59099;SDS011;44884;52.730;6.964;2022-09-14T16:17:28;12.30;;;2.45;;
59099;SDS011;44884;52.730;6.964;2022-09-14T16:19:54;7.75;;;1.73;;
59099;SDS011;44884;52.730;6.964;2022-09-14T16:22:20;10.45;;;2.28;;
59099;SDS011;44884;52.730;6.964;2022-09-14T16:24:46;8.65;;;1.80;;
59099;SDS011;44884;52.730;6.964;2022-09-14T16:27:12;10.63;;;1.95;;
59099;SDS011;44884;52.730;6.964;2022-09-14T16:29:38;4.85;;;1.55;;
59099;SDS011;44884;52.730;6.964;2022-09-14T16:32:04;5.53;;;1.48;;
59099;SDS011;44884;52.730;6.964;2022-09-14T16:34:30;4.05;;;1.48;;
59099;SDS011;44884;52.730;6.964;2022-09-14T16:36:56;7.03;;;1.52;;
59099;SDS011;44884;52.730;6.964;2022-09-14T16:39:23;9.25;;;1.60;;
59099;SDS011;44884;52.730;6.964;2022-09-14T16:41:50;4.13;;;1.75;;
59099;SDS011;44884;52.730;6.964;2022-09-14T16:44:17;4.38;;;1.35;;
59099;SDS011;44884;52.730;6.964;2022-09-14T16:46:44;7.68;;;2.25;;
59099;SDS011;44884;52.730;6.964;2022-09-14T16:49:10;3.25;;;1.20;;
59099;SDS011;44884;52.730;6.964;2022-09-14T16:51:36;6.13;;;1.48;;
59099;SDS011;44884;52.730;6.964;2022-09-14T16:54:02;4.55;;;1.40;;
59099;SDS011;44884;52.730;6.964;2022-09-14T16:56:30;8.20;;;1.65;;
59099;SDS011;44884;52.730;6.964;2022-09-14T16:58:56;6.15;;;1.42;;
59099;SDS011;44884;52.730;6.964;2022-09-14T17:01:24;5.53;;;1.40;;
59099;SDS011;44884;52.730;6.964;2022-09-14T17:03:51;5.75;;;1.42;;
59099;SDS011;44884;52.730;6.964;2022-09-14T17:06:18;5.40;;;1.55;;
59099;SDS011;44884;52.730;6.964;2022-09-14T17:08:44;5.60;;;1.38;;
59099;SDS011;44884;52.730;6.964;2022-09-14T17:11:11;2.83;;;1.17;;
59099;SDS011;44884;52.730;6.964;2022-09-14T17:13:37;3.42;;;1.35;;
59099;SDS011;44884;52.730;6.964;2022-09-14T17:16:09;3.45;;;1.30;;